sensor_id;sensor_type;location;lat;lon;timestamp;temperature;humidity
75927;DHT22;64605;48.296;16.416;2023-01-10T00:00:23;9.40;67.20
75927;DHT22;64605;48.296;16.416;2023-01-10T00:02:49;9.40;67.30
75927;DHT22;64605;48.296;16.416;2023-01-10T00:05:16;9.40;66.90
75927;DHT22;64605;48.296;16.416;2023-01-10T00:07:42;9.40;66.90
75927;DHT22;64605;48.296;16.416;2023-01-10T00:10:08;9.50;67.00
75927;DHT22;64605;48.296;16.416;2023-01-10T00:12:34;9.40;66.70
75927;DHT22;64605;48.296;16.416;2023-01-10T00:15:18;9.50;66.80
75927;DHT22;64605;48.296;16.416;2023-01-10T00:17:43;9.40;66.90
75927;DHT22;64605;48.296;16.416;2023-01-10T00:20:09;9.50;66.90
75927;DHT22;64605;48.296;16.416;2023-01-10T00:22:35;9.40;66.90
75927;DHT22;64605;48.296;16.416;2023-01-10T00:25:01;9.40;66.90
75927;DHT22;64605;48.296;16.416;2023-01-10T00:27:26;9.40;66.70
75927;DHT22;64605;48.296;16.416;2023-01-10T00:29:52;9.40;66.60
75927;DHT22;64605;48.296;16.416;2023-01-10T00:32:19;9.40;66.90
75927;DHT22;64605;48.296;16.416;2023-01-10T00:34:45;9.50;66.70
75927;DHT22;64605;48.296;16.416;2023-01-10T00:37:11;9.40;66.60
75927;DHT22;64605;48.296;16.416;2023-01-10T00:39:37;9.50;66.70
75927;DHT22;64605;48.296;16.416;2023-01-10T00:42:03;9.40;66.60
75927;DHT22;64605;48.296;16.416;2023-01-10T00:44:47;9.50;66.60
75927;DHT22;64605;48.296;16.416;2023-01-10T00:47:13;9.50;66.70
75927;DHT22;64605;48.296;16.416;2023-01-10T00:49:39;9.50;66.80
75927;DHT22;64605;48.296;16.416;2023-01-10T00:52:05;9.50;66.50
75927;DHT22;64605;48.296;16.416;2023-01-10T00:54:31;9.50;66.00
75927;DHT22;64605;48.296;16.416;2023-01-10T00:56:56;9.40;66.30
75927;DHT22;64605;48.296;16.416;2023-01-10T00:59:22;9.40;66.30
75927;DHT22;64605;48.296;16.416;2023-01-10T01:01:49;9.40;66.00
75927;DHT22;64605;48.296;16.416;2023-01-10T01:04:15;9.40;66.50
75927;DHT22;64605;48.296;16.416;2023-01-10T01:06:43;9.40;66.30
75927;DHT22;64605;48.296;16.416;2023-01-10T01:09:09;9.50;66.50
75927;DHT22;64605;48.296;16.416;2023-01-10T01:11:34;9.50;66.00
75927;DHT22;64605;48.296;16.416;2023-01-10T01:14:00;9.50;66.20
75927;DHT22;64605;48.296;16.416;2023-01-10T01:16:25;9.50;66.20
75927;DHT22;64605;48.296;16.416;2023-01-10T01:18:51;9.50;66.10
75927;DHT22;64605;48.296;16.416;2023-01-10T01:21:17;9.50;66.00
75927;DHT22;64605;48.296;16.416;2023-01-10T01:23:42;9.50;66.00
75927;DHT22;64605;48.296;16.416;2023-01-10T01:26:08;9.50;65.70
75927;DHT22;64605;48.296;16.416;2023-01-10T01:28:35;9.50;65.70
75927;DHT22;64605;48.296;16.416;2023-01-10T01:31:06;9.50;65.90
75927;DHT22;64605;48.296;16.416;2023-01-10T01:33:32;9.50;66.00
75927;DHT22;64605;48.296;16.416;2023-01-10T01:35:58;9.50;65.50
75927;DHT22;64605;48.296;16.416;2023-01-10T01:38:23;9.50;65.40
75927;DHT22;64605;48.296;16.416;2023-01-10T01:40:49;9.50;65.50
75927;DHT22;64605;48.296;16.416;2023-01-10T01:43:25;9.50;65.50
75927;DHT22;64605;48.296;16.416;2023-01-10T01:45:52;9.50;65.50
75927;DHT22;64605;48.296;16.416;2023-01-10T01:48:38;9.50;65.50
75927;DHT22;64605;48.296;16.416;2023-01-10T01:53:39;9.50;65.20
75927;DHT22;64605;48.296;16.416;2023-01-10T01:56:36;9.50;65.10
75927;DHT22;64605;48.296;16.416;2023-01-10T01:59:13;9.60;65.30
75927;DHT22;64605;48.296;16.416;2023-01-10T02:01:41;9.60;65.10
75927;DHT22;64605;48.296;16.416;2023-01-10T02:04:19;9.60;65.10
75927;DHT22;64605;48.296;16.416;2023-01-10T02:06:47;9.60;64.80
75927;DHT22;64605;48.296;16.416;2023-01-10T02:11:55;9.60;65.40
75927;DHT22;64605;48.296;16.416;2023-01-10T02:14:23;9.70;65.40
75927;DHT22;64605;48.296;16.416;2023-01-10T02:16:48;9.70;65.60
75927;DHT22;64605;48.296;16.416;2023-01-10T02:33:25;9.70;65.60
75927;DHT22;64605;48.296;16.416;2023-01-10T02:36:07;9.60;65.80
75927;DHT22;64605;48.296;16.416;2023-01-10T02:39:02;9.60;66.00
75927;DHT22;64605;48.296;16.416;2023-01-10T02:44:44;9.60;65.90
75927;DHT22;64605;48.296;16.416;2023-01-10T02:47:12;9.50;66.00
75927;DHT22;64605;48.296;16.416;2023-01-10T02:49:43;9.50;66.20
75927;DHT22;64605;48.296;16.416;2023-01-10T02:52:09;9.50;66.10
75927;DHT22;64605;48.296;16.416;2023-01-10T02:54:36;9.50;66.30
75927;DHT22;64605;48.296;16.416;2023-01-10T02:59:59;9.50;66.40
75927;DHT22;64605;48.296;16.416;2023-01-10T03:10:49;9.50;67.10
75927;DHT22;64605;48.296;16.416;2023-01-10T03:13:30;9.50;67.30
75927;DHT22;64605;48.296;16.416;2023-01-10T03:16:00;9.40;67.30
75927;DHT22;64605;48.296;16.416;2023-01-10T03:19:32;9.40;67.50
75927;DHT22;64605;48.296;16.416;2023-01-10T03:21:29;9.40;67.60
75927;DHT22;64605;48.296;16.416;2023-01-10T03:23:59;9.40;67.50
75927;DHT22;64605;48.296;16.416;2023-01-10T03:29:11;9.40;68.30
75927;DHT22;64605;48.296;16.416;2023-01-10T03:31:47;9.40;68.40
75927;DHT22;64605;48.296;16.416;2023-01-10T03:34:14;9.30;68.90
75927;DHT22;64605;48.296;16.416;2023-01-10T03:37:01;9.30;68.90
75927;DHT22;64605;48.296;16.416;2023-01-10T03:39:40;9.30;69.30
75927;DHT22;64605;48.296;16.416;2023-01-10T03:42:33;9.30;69.70
75927;DHT22;64605;48.296;16.416;2023-01-10T03:45:25;9.30;70.00
75927;DHT22;64605;48.296;16.416;2023-01-10T03:47:55;9.10;70.40
75927;DHT22;64605;48.296;16.416;2023-01-10T03:50:24;9.10;70.50
75927;DHT22;64605;48.296;16.416;2023-01-10T03:52:51;9.10;70.70
75927;DHT22;64605;48.296;16.416;2023-01-10T03:55:20;9.10;71.30
75927;DHT22;64605;48.296;16.416;2023-01-10T03:57:47;9.10;71.00
75927;DHT22;64605;48.296;16.416;2023-01-10T04:00:14;9.00;71.40
75927;DHT22;64605;48.296;16.416;2023-01-10T04:02:40;9.00;71.90
75927;DHT22;64605;48.296;16.416;2023-01-10T04:05:07;9.00;71.80
75927;DHT22;64605;48.296;16.416;2023-01-10T04:07:33;8.90;72.00
75927;DHT22;64605;48.296;16.416;2023-01-10T04:09:59;8.90;72.40
75927;DHT22;64605;48.296;16.416;2023-01-10T04:12:24;8.90;72.50
75927;DHT22;64605;48.296;16.416;2023-01-10T04:14:51;8.90;72.50
75927;DHT22;64605;48.296;16.416;2023-01-10T04:17:17;9.00;72.70
75927;DHT22;64605;48.296;16.416;2023-01-10T04:19:43;8.90;72.80
75927;DHT22;64605;48.296;16.416;2023-01-10T04:22:10;8.90;73.00
75927;DHT22;64605;48.296;16.416;2023-01-10T04:24:36;8.90;73.10
75927;DHT22;64605;48.296;16.416;2023-01-10T04:27:01;8.80;73.40
75927;DHT22;64605;48.296;16.416;2023-01-10T04:29:27;8.80;73.80
75927;DHT22;64605;48.296;16.416;2023-01-10T04:31:53;8.80;73.80
75927;DHT22;64605;48.296;16.416;2023-01-10T04:34:19;8.80;74.00
75927;DHT22;64605;48.296;16.416;2023-01-10T04:36:46;8.70;74.30
75927;DHT22;64605;48.296;16.416;2023-01-10T04:39:12;8.70;74.40
75927;DHT22;64605;48.296;16.416;2023-01-10T04:41:37;8.80;74.40
75927;DHT22;64605;48.296;16.416;2023-01-10T04:44:03;8.80;74.20
75927;DHT22;64605;48.296;16.416;2023-01-10T04:46:29;8.80;74.20
75927;DHT22;64605;48.296;16.416;2023-01-10T04:48:55;8.80;74.20
75927;DHT22;64605;48.296;16.416;2023-01-10T04:51:22;8.80;74.30
75927;DHT22;64605;48.296;16.416;2023-01-10T04:53:48;8.70;74.50
75927;DHT22;64605;48.296;16.416;2023-01-10T04:56:19;8.70;74.50
75927;DHT22;64605;48.296;16.416;2023-01-10T04:58:45;8.70;74.70
75927;DHT22;64605;48.296;16.416;2023-01-10T05:01:17;8.70;74.80
75927;DHT22;64605;48.296;16.416;2023-01-10T05:03:46;8.70;74.70
75927;DHT22;64605;48.296;16.416;2023-01-10T05:06:12;8.70;75.00
75927;DHT22;64605;48.296;16.416;2023-01-10T05:08:38;8.60;75.20
75927;DHT22;64605;48.296;16.416;2023-01-10T05:11:03;8.60;75.30
75927;DHT22;64605;48.296;16.416;2023-01-10T05:13:29;8.60;75.30
75927;DHT22;64605;48.296;16.416;2023-01-10T05:15:55;8.60;75.40
75927;DHT22;64605;48.296;16.416;2023-01-10T05:18:23;8.60;75.60
75927;DHT22;64605;48.296;16.416;2023-01-10T05:20:48;8.60;75.30
75927;DHT22;64605;48.296;16.416;2023-01-10T05:23:14;8.60;75.50
75927;DHT22;64605;48.296;16.416;2023-01-10T05:25:40;8.60;75.40
75927;DHT22;64605;48.296;16.416;2023-01-10T05:28:05;8.60;75.50
75927;DHT22;64605;48.296;16.416;2023-01-10T05:30:31;8.60;75.20
75927;DHT22;64605;48.296;16.416;2023-01-10T05:32:56;8.60;75.40
75927;DHT22;64605;48.296;16.416;2023-01-10T05:35:22;8.60;75.40
75927;DHT22;64605;48.296;16.416;2023-01-10T05:37:48;8.60;75.40
75927;DHT22;64605;48.296;16.416;2023-01-10T05:40:13;8.60;75.40
75927;DHT22;64605;48.296;16.416;2023-01-10T05:42:40;8.60;75.20
75927;DHT22;64605;48.296;16.416;2023-01-10T05:45:06;8.60;75.00
75927;DHT22;64605;48.296;16.416;2023-01-10T05:47:31;8.60;74.70
75927;DHT22;64605;48.296;16.416;2023-01-10T05:49:57;8.70;74.60
75927;DHT22;64605;48.296;16.416;2023-01-10T05:52:23;8.60;74.70
75927;DHT22;64605;48.296;16.416;2023-01-10T05:54:48;8.70;74.80
75927;DHT22;64605;48.296;16.416;2023-01-10T05:57:14;8.70;75.00
75927;DHT22;64605;48.296;16.416;2023-01-10T05:59:39;8.70;74.70
75927;DHT22;64605;48.296;16.416;2023-01-10T06:02:05;8.70;74.60
75927;DHT22;64605;48.296;16.416;2023-01-10T06:04:31;8.70;74.60
75927;DHT22;64605;48.296;16.416;2023-01-10T06:06:56;8.70;74.80
75927;DHT22;64605;48.296;16.416;2023-01-10T06:09:22;8.70;74.70
75927;DHT22;64605;48.296;16.416;2023-01-10T06:11:48;8.70;74.50
75927;DHT22;64605;48.296;16.416;2023-01-10T06:14:13;8.70;74.70
75927;DHT22;64605;48.296;16.416;2023-01-10T06:16:46;8.70;74.60
75927;DHT22;64605;48.296;16.416;2023-01-10T06:19:12;8.70;74.50
75927;DHT22;64605;48.296;16.416;2023-01-10T06:21:38;8.80;74.30
75927;DHT22;64605;48.296;16.416;2023-01-10T06:24:03;8.70;74.30
75927;DHT22;64605;48.296;16.416;2023-01-10T06:26:29;8.70;74.50
75927;DHT22;64605;48.296;16.416;2023-01-10T06:28:55;8.70;74.30
75927;DHT22;64605;48.296;16.416;2023-01-10T06:31:22;8.80;74.00
75927;DHT22;64605;48.296;16.416;2023-01-10T06:33:49;8.80;74.20
75927;DHT22;64605;48.296;16.416;2023-01-10T06:36:15;8.80;74.00
75927;DHT22;64605;48.296;16.416;2023-01-10T06:38:41;8.80;74.50
75927;DHT22;64605;48.296;16.416;2023-01-10T06:41:07;8.80;74.00
75927;DHT22;64605;48.296;16.416;2023-01-10T06:43:43;8.80;73.70
75927;DHT22;64605;48.296;16.416;2023-01-10T06:46:15;8.70;74.10
75927;DHT22;64605;48.296;16.416;2023-01-10T06:48:42;8.80;74.00
75927;DHT22;64605;48.296;16.416;2023-01-10T06:51:10;8.70;74.00
75927;DHT22;64605;48.296;16.416;2023-01-10T06:53:35;8.70;74.20
75927;DHT22;64605;48.296;16.416;2023-01-10T06:56:01;8.70;73.80
75927;DHT22;64605;48.296;16.416;2023-01-10T06:58:27;8.70;74.30
75927;DHT22;64605;48.296;16.416;2023-01-10T07:00:53;8.80;74.20
75927;DHT22;64605;48.296;16.416;2023-01-10T07:03:19;8.80;74.10
75927;DHT22;64605;48.296;16.416;2023-01-10T07:05:45;8.80;74.30
75927;DHT22;64605;48.296;16.416;2023-01-10T07:08:10;8.80;74.30
75927;DHT22;64605;48.296;16.416;2023-01-10T07:10:39;8.70;74.30
75927;DHT22;64605;48.296;16.416;2023-01-10T07:13:05;8.80;74.60
75927;DHT22;64605;48.296;16.416;2023-01-10T07:15:31;8.70;74.40
75927;DHT22;64605;48.296;16.416;2023-01-10T07:17:57;8.70;74.50
75927;DHT22;64605;48.296;16.416;2023-01-10T07:20:23;8.80;74.40
75927;DHT22;64605;48.296;16.416;2023-01-10T07:22:56;8.80;74.50
75927;DHT22;64605;48.296;16.416;2023-01-10T07:25:23;8.80;74.00
75927;DHT22;64605;48.296;16.416;2023-01-10T07:27:49;8.80;74.20
75927;DHT22;64605;48.296;16.416;2023-01-10T07:30:15;8.90;73.50
75927;DHT22;64605;48.296;16.416;2023-01-10T07:32:40;8.90;73.80
75927;DHT22;64605;48.296;16.416;2023-01-10T07:35:06;8.90;74.00
75927;DHT22;64605;48.296;16.416;2023-01-10T07:37:33;8.90;73.30
75927;DHT22;64605;48.296;16.416;2023-01-10T07:39:58;8.90;73.80
75927;DHT22;64605;48.296;16.416;2023-01-10T07:42:24;8.90;73.30
75927;DHT22;64605;48.296;16.416;2023-01-10T07:44:49;8.90;73.30
75927;DHT22;64605;48.296;16.416;2023-01-10T07:47:15;8.90;73.30
75927;DHT22;64605;48.296;16.416;2023-01-10T07:49:41;9.00;73.10
75927;DHT22;64605;48.296;16.416;2023-01-10T07:52:06;8.90;72.80
75927;DHT22;64605;48.296;16.416;2023-01-10T07:54:34;9.00;73.00
75927;DHT22;64605;48.296;16.416;2023-01-10T07:57:00;9.00;72.60
75927;DHT22;64605;48.296;16.416;2023-01-10T07:59:26;9.00;72.70
75927;DHT22;64605;48.296;16.416;2023-01-10T08:01:52;9.10;72.10
75927;DHT22;64605;48.296;16.416;2023-01-10T08:04:19;9.10;71.90
75927;DHT22;64605;48.296;16.416;2023-01-10T08:06:44;9.00;72.20
75927;DHT22;64605;48.296;16.416;2023-01-10T08:09:10;9.10;71.80
75927;DHT22;64605;48.296;16.416;2023-01-10T08:11:36;9.10;71.40
75927;DHT22;64605;48.296;16.416;2023-01-10T08:14:02;9.20;71.40
75927;DHT22;64605;48.296;16.416;2023-01-10T08:16:27;9.20;71.10
75927;DHT22;64605;48.296;16.416;2023-01-10T08:18:53;9.20;71.10
75927;DHT22;64605;48.296;16.416;2023-01-10T08:21:19;9.30;70.90
75927;DHT22;64605;48.296;16.416;2023-01-10T08:23:44;9.40;70.90
75927;DHT22;64605;48.296;16.416;2023-01-10T08:26:10;9.40;70.40
75927;DHT22;64605;48.296;16.416;2023-01-10T08:28:36;9.50;70.30
75927;DHT22;64605;48.296;16.416;2023-01-10T08:31:08;9.60;69.50
75927;DHT22;64605;48.296;16.416;2023-01-10T08:33:35;9.60;69.70
75927;DHT22;64605;48.296;16.416;2023-01-10T08:36:01;9.60;69.10
75927;DHT22;64605;48.296;16.416;2023-01-10T08:38:27;9.60;69.60
75927;DHT22;64605;48.296;16.416;2023-01-10T08:40:56;9.70;69.20
75927;DHT22;64605;48.296;16.416;2023-01-10T08:43:22;9.60;68.90
75927;DHT22;64605;48.296;16.416;2023-01-10T08:45:49;9.70;69.30
75927;DHT22;64605;48.296;16.416;2023-01-10T08:48:14;9.70;69.60
75927;DHT22;64605;48.296;16.416;2023-01-10T08:50:40;9.80;69.40
75927;DHT22;64605;48.296;16.416;2023-01-10T08:53:06;9.90;68.30
75927;DHT22;64605;48.296;16.416;2023-01-10T08:55:32;10.00;68.70
75927;DHT22;64605;48.296;16.416;2023-01-10T08:58:00;10.00;68.00
75927;DHT22;64605;48.296;16.416;2023-01-10T09:00:27;10.00;67.50
75927;DHT22;64605;48.296;16.416;2023-01-10T09:02:52;10.00;67.20
75927;DHT22;64605;48.296;16.416;2023-01-10T09:05:18;10.00;68.10
75927;DHT22;64605;48.296;16.416;2023-01-10T09:07:44;10.10;67.00
75927;DHT22;64605;48.296;16.416;2023-01-10T09:10:11;10.20;67.40
75927;DHT22;64605;48.296;16.416;2023-01-10T09:12:37;10.20;67.10
75927;DHT22;64605;48.296;16.416;2023-01-10T09:15:27;10.20;66.60
75927;DHT22;64605;48.296;16.416;2023-01-10T09:18:01;10.20;66.40
75927;DHT22;64605;48.296;16.416;2023-01-10T09:20:29;10.20;66.70
75927;DHT22;64605;48.296;16.416;2023-01-10T09:22:57;10.30;66.40
75927;DHT22;64605;48.296;16.416;2023-01-10T09:25:24;10.30;66.20
75927;DHT22;64605;48.296;16.416;2023-01-10T09:27:57;10.30;65.30
75927;DHT22;64605;48.296;16.416;2023-01-10T09:30:23;10.30;66.00
75927;DHT22;64605;48.296;16.416;2023-01-10T09:32:50;10.40;65.90
75927;DHT22;64605;48.296;16.416;2023-01-10T09:35:16;10.40;65.50
75927;DHT22;64605;48.296;16.416;2023-01-10T09:37:42;10.40;65.70
75927;DHT22;64605;48.296;16.416;2023-01-10T09:40:12;10.40;65.70
75927;DHT22;64605;48.296;16.416;2023-01-10T09:42:50;10.50;65.40
75927;DHT22;64605;48.296;16.416;2023-01-10T09:45:29;10.50;64.70
75927;DHT22;64605;48.296;16.416;2023-01-10T09:48:02;10.50;64.70
75927;DHT22;64605;48.296;16.416;2023-01-10T09:51:24;10.60;64.80
75927;DHT22;64605;48.296;16.416;2023-01-10T09:53:31;10.60;64.70
75927;DHT22;64605;48.296;16.416;2023-01-10T09:56:00;10.60;64.70
75927;DHT22;64605;48.296;16.416;2023-01-10T09:58:29;10.70;64.50
75927;DHT22;64605;48.296;16.416;2023-01-10T10:01:03;10.70;63.20
75927;DHT22;64605;48.296;16.416;2023-01-10T10:03:45;10.70;63.60
75927;DHT22;64605;48.296;16.416;2023-01-10T10:06:13;10.60;63.90
75927;DHT22;64605;48.296;16.416;2023-01-10T10:08:41;10.70;64.10
75927;DHT22;64605;48.296;16.416;2023-01-10T10:34:52;11.10;62.90
75927;DHT22;64605;48.296;16.416;2023-01-10T10:37:40;11.10;61.30
75927;DHT22;64605;48.296;16.416;2023-01-10T10:42:43;11.20;62.20
75927;DHT22;64605;48.296;16.416;2023-01-10T10:45:59;11.30;62.20
75927;DHT22;64605;48.296;16.416;2023-01-10T10:51:19;11.40;61.20
75927;DHT22;64605;48.296;16.416;2023-01-10T10:53:47;11.40;61.00
75927;DHT22;64605;48.296;16.416;2023-01-10T10:56:18;11.50;60.70
75927;DHT22;64605;48.296;16.416;2023-01-10T10:58:48;11.60;60.30
75927;DHT22;64605;48.296;16.416;2023-01-10T11:01:15;11.60;60.50
75927;DHT22;64605;48.296;16.416;2023-01-10T11:03:54;11.80;60.90
75927;DHT22;64605;48.296;16.416;2023-01-10T11:06:23;11.80;59.50
75927;DHT22;64605;48.296;16.416;2023-01-10T11:08:54;11.80;59.20
75927;DHT22;64605;48.296;16.416;2023-01-10T11:11:24;12.00;59.60
75927;DHT22;64605;48.296;16.416;2023-01-10T11:13:59;12.10;59.20
75927;DHT22;64605;48.296;16.416;2023-01-10T11:19:25;12.10;58.10
75927;DHT22;64605;48.296;16.416;2023-01-10T11:22:05;12.30;58.50
75927;DHT22;64605;48.296;16.416;2023-01-10T11:24:35;12.40;58.40
75927;DHT22;64605;48.296;16.416;2023-01-10T11:27:04;12.50;58.00
75927;DHT22;64605;48.296;16.416;2023-01-10T11:29:47;12.60;56.90
75927;DHT22;64605;48.296;16.416;2023-01-10T11:32:17;12.60;57.10
75927;DHT22;64605;48.296;16.416;2023-01-10T11:34:50;12.80;56.90
75927;DHT22;64605;48.296;16.416;2023-01-10T11:37:28;12.70;56.00
75927;DHT22;64605;48.296;16.416;2023-01-10T11:40:13;12.70;55.90
75927;DHT22;64605;48.296;16.416;2023-01-10T11:42:39;12.70;55.30
75927;DHT22;64605;48.296;16.416;2023-01-10T11:47:49;13.00;55.50
75927;DHT22;64605;48.296;16.416;2023-01-10T11:50:24;13.10;55.50
75927;DHT22;64605;48.296;16.416;2023-01-10T11:52:50;13.20;55.10
75927;DHT22;64605;48.296;16.416;2023-01-10T11:55:27;13.20;55.10
75927;DHT22;64605;48.296;16.416;2023-01-10T11:58:01;13.20;54.80
75927;DHT22;64605;48.296;16.416;2023-01-10T12:03:28;13.20;54.30
75927;DHT22;64605;48.296;16.416;2023-01-10T12:06:01;13.40;54.10
75927;DHT22;64605;48.296;16.416;2023-01-10T12:08:38;13.40;54.30
75927;DHT22;64605;48.296;16.416;2023-01-10T12:11:30;13.50;54.20
75927;DHT22;64605;48.296;16.416;2023-01-10T12:13:58;13.50;52.60
75927;DHT22;64605;48.296;16.416;2023-01-10T12:16:32;13.40;53.60
75927;DHT22;64605;48.296;16.416;2023-01-10T12:19:03;13.30;52.70
75927;DHT22;64605;48.296;16.416;2023-01-10T12:21:40;13.20;53.20
75927;DHT22;64605;48.296;16.416;2023-01-10T12:24:21;13.10;52.70
75927;DHT22;64605;48.296;16.416;2023-01-10T12:26:49;13.00;53.90
75927;DHT22;64605;48.296;16.416;2023-01-10T12:29:23;13.00;53.80
75927;DHT22;64605;48.296;16.416;2023-01-10T12:31:51;13.00;53.90
75927;DHT22;64605;48.296;16.416;2023-01-10T12:34:24;13.10;53.90
75927;DHT22;64605;48.296;16.416;2023-01-10T12:36:59;13.10;53.60
75927;DHT22;64605;48.296;16.416;2023-01-10T12:39:33;12.90;53.10
75927;DHT22;64605;48.296;16.416;2023-01-10T12:45:18;12.60;53.40
75927;DHT22;64605;48.296;16.416;2023-01-10T12:47:59;12.60;53.70
75927;DHT22;64605;48.296;16.416;2023-01-10T12:50:36;12.50;53.70
75927;DHT22;64605;48.296;16.416;2023-01-10T12:55:35;12.50;54.40
75927;DHT22;64605;48.296;16.416;2023-01-10T12:58:03;12.50;53.70
75927;DHT22;64605;48.296;16.416;2023-01-10T13:00:34;12.40;54.80
75927;DHT22;64605;48.296;16.416;2023-01-10T13:03:03;12.40;53.30
75927;DHT22;64605;48.296;16.416;2023-01-10T13:05:30;12.20;54.10
75927;DHT22;64605;48.296;16.416;2023-01-10T13:08:08;12.20;53.90
75927;DHT22;64605;48.296;16.416;2023-01-10T13:10:39;12.20;54.30
75927;DHT22;64605;48.296;16.416;2023-01-10T13:18:29;12.10;53.50
75927;DHT22;64605;48.296;16.416;2023-01-10T13:21:07;12.00;53.50
75927;DHT22;64605;48.296;16.416;2023-01-10T13:23:48;11.90;53.90
75927;DHT22;64605;48.296;16.416;2023-01-10T13:26:14;11.80;54.10
75927;DHT22;64605;48.296;16.416;2023-01-10T13:28:58;11.70;54.30
75927;DHT22;64605;48.296;16.416;2023-01-10T13:31:32;11.60;54.80
75927;DHT22;64605;48.296;16.416;2023-01-10T13:33:59;11.60;55.20
75927;DHT22;64605;48.296;16.416;2023-01-10T13:36:28;11.60;55.30
75927;DHT22;64605;48.296;16.416;2023-01-10T13:38:57;11.50;55.00
75927;DHT22;64605;48.296;16.416;2023-01-10T13:55:28;11.40;55.20
75927;DHT22;64605;48.296;16.416;2023-01-10T13:57:56;11.40;55.20
75927;DHT22;64605;48.296;16.416;2023-01-10T14:00:23;11.40;55.10
75927;DHT22;64605;48.296;16.416;2023-01-10T14:08:53;11.30;55.40
75927;DHT22;64605;48.296;16.416;2023-01-10T14:11:24;11.30;55.20
75927;DHT22;64605;48.296;16.416;2023-01-10T14:13:54;11.20;55.40
75927;DHT22;64605;48.296;16.416;2023-01-10T14:16:34;11.20;55.30
75927;DHT22;64605;48.296;16.416;2023-01-10T14:19:02;11.20;55.60
75927;DHT22;64605;48.296;16.416;2023-01-10T14:21:30;11.20;55.70
75927;DHT22;64605;48.296;16.416;2023-01-10T14:23:57;11.10;55.90
75927;DHT22;64605;48.296;16.416;2023-01-10T14:26:35;11.00;56.10
75927;DHT22;64605;48.296;16.416;2023-01-10T14:29:15;11.00;56.40
75927;DHT22;64605;48.296;16.416;2023-01-10T14:31:44;10.90;56.60
75927;DHT22;64605;48.296;16.416;2023-01-10T14:34:19;10.80;56.90
75927;DHT22;64605;48.296;16.416;2023-01-10T14:39:18;10.80;57.60
75927;DHT22;64605;48.296;16.416;2023-01-10T14:41:46;10.80;57.80
75927;DHT22;64605;48.296;16.416;2023-01-10T14:44:30;10.80;57.70
75927;DHT22;64605;48.296;16.416;2023-01-10T14:46:58;10.80;57.70
75927;DHT22;64605;48.296;16.416;2023-01-10T14:49:40;10.80;57.70
75927;DHT22;64605;48.296;16.416;2023-01-10T14:52:23;10.80;58.10
75927;DHT22;64605;48.296;16.416;2023-01-10T14:57:37;10.70;58.40
75927;DHT22;64605;48.296;16.416;2023-01-10T15:02:34;10.60;58.30
75927;DHT22;64605;48.296;16.416;2023-01-10T15:05:21;10.50;58.20
75927;DHT22;64605;48.296;16.416;2023-01-10T15:07:49;10.50;57.90
75927;DHT22;64605;48.296;16.416;2023-01-10T15:10:27;10.50;58.30
75927;DHT22;64605;48.296;16.416;2023-01-10T15:12:57;10.50;58.40
75927;DHT22;64605;48.296;16.416;2023-01-10T15:15:36;10.50;58.60
75927;DHT22;64605;48.296;16.416;2023-01-10T15:18:24;10.40;58.80
75927;DHT22;64605;48.296;16.416;2023-01-10T15:20:51;10.40;60.20
75927;DHT22;64605;48.296;16.416;2023-01-10T15:23:17;10.30;59.70
75927;DHT22;64605;48.296;16.416;2023-01-10T15:25:44;10.40;59.90
75927;DHT22;64605;48.296;16.416;2023-01-10T15:28:15;10.30;60.10
75927;DHT22;64605;48.296;16.416;2023-01-10T15:30:41;10.30;60.30
75927;DHT22;64605;48.296;16.416;2023-01-10T15:33:23;10.30;60.60
75927;DHT22;64605;48.296;16.416;2023-01-10T15:35:49;10.30;60.60
75927;DHT22;64605;48.296;16.416;2023-01-10T15:38:20;10.30;61.00
75927;DHT22;64605;48.296;16.416;2023-01-10T15:41:02;10.20;61.60
75927;DHT22;64605;48.296;16.416;2023-01-10T15:43:30;10.20;61.60
75927;DHT22;64605;48.296;16.416;2023-01-10T15:45:57;10.10;62.30
75927;DHT22;64605;48.296;16.416;2023-01-10T15:48:35;9.90;62.80
75927;DHT22;64605;48.296;16.416;2023-01-10T15:56:41;9.60;63.40
75927;DHT22;64605;48.296;16.416;2023-01-10T15:59:29;9.70;64.00
75927;DHT22;64605;48.296;16.416;2023-01-10T16:02:21;9.70;64.00
75927;DHT22;64605;48.296;16.416;2023-01-10T16:04:51;9.70;63.80
75927;DHT22;64605;48.296;16.416;2023-01-10T16:07:21;9.70;63.60
75927;DHT22;64605;48.296;16.416;2023-01-10T16:12:52;9.70;63.50
75927;DHT22;64605;48.296;16.416;2023-01-10T16:15:39;9.70;63.30
75927;DHT22;64605;48.296;16.416;2023-01-10T16:18:06;9.70;63.20
75927;DHT22;64605;48.296;16.416;2023-01-10T16:20:36;9.70;63.20
75927;DHT22;64605;48.296;16.416;2023-01-10T16:23:03;9.70;63.10
75927;DHT22;64605;48.296;16.416;2023-01-10T16:25:34;9.70;63.10
75927;DHT22;64605;48.296;16.416;2023-01-10T16:28:01;9.70;63.30
75927;DHT22;64605;48.296;16.416;2023-01-10T16:30:32;9.70;63.30
75927;DHT22;64605;48.296;16.416;2023-01-10T16:32:59;9.70;63.10
75927;DHT22;64605;48.296;16.416;2023-01-10T16:35:27;9.70;63.10
75927;DHT22;64605;48.296;16.416;2023-01-10T16:37:57;9.60;63.10
75927;DHT22;64605;48.296;16.416;2023-01-10T16:40:26;9.60;63.30
75927;DHT22;64605;48.296;16.416;2023-01-10T16:42:53;9.60;63.20
75927;DHT22;64605;48.296;16.416;2023-01-10T16:45:38;9.70;63.30
75927;DHT22;64605;48.296;16.416;2023-01-10T16:48:05;9.70;62.90
75927;DHT22;64605;48.296;16.416;2023-01-10T16:50:31;9.70;62.70
75927;DHT22;64605;48.296;16.416;2023-01-10T16:52:57;9.70;63.00
75927;DHT22;64605;48.296;16.416;2023-01-10T16:55:47;9.70;62.90
75927;DHT22;64605;48.296;16.416;2023-01-10T16:58:14;9.70;63.10
75927;DHT22;64605;48.296;16.416;2023-01-10T17:00:43;9.60;62.90
75927;DHT22;64605;48.296;16.416;2023-01-10T17:03:18;9.60;63.30
75927;DHT22;64605;48.296;16.416;2023-01-10T17:05:44;9.60;63.40
75927;DHT22;64605;48.296;16.416;2023-01-10T17:08:21;9.60;63.30
75927;DHT22;64605;48.296;16.416;2023-01-10T17:10:51;9.60;63.30
75927;DHT22;64605;48.296;16.416;2023-01-10T17:13:26;9.60;63.40
75927;DHT22;64605;48.296;16.416;2023-01-10T17:15:53;9.50;63.50
75927;DHT22;64605;48.296;16.416;2023-01-10T17:18:19;9.50;63.40
75927;DHT22;64605;48.296;16.416;2023-01-10T17:20:45;9.50;63.60
75927;DHT22;64605;48.296;16.416;2023-01-10T17:23:11;9.50;63.80
75927;DHT22;64605;48.296;16.416;2023-01-10T17:25:39;9.50;63.80
75927;DHT22;64605;48.296;16.416;2023-01-10T17:28:05;9.50;63.90
75927;DHT22;64605;48.296;16.416;2023-01-10T17:30:31;9.50;64.00
75927;DHT22;64605;48.296;16.416;2023-01-10T17:32:56;9.50;63.80
75927;DHT22;64605;48.296;16.416;2023-01-10T17:35:23;9.50;63.90
75927;DHT22;64605;48.296;16.416;2023-01-10T17:37:52;9.50;63.80
75927;DHT22;64605;48.296;16.416;2023-01-10T17:40:17;9.50;63.70
75927;DHT22;64605;48.296;16.416;2023-01-10T17:42:43;9.40;63.90